createdAt,value
2023-04-03T00:01:16.405Z,102914.72
2023-04-03T00:04:39.756Z,102915.69
2023-04-03T00:08:02.877Z,102911.38
2023-04-03T00:11:24.815Z,102912.34
2023-04-03T00:14:46.704Z,102921.25
2023-04-03T00:18:09.115Z,102915.19
2023-04-03T00:21:32.626Z,102917.88
2023-04-03T00:24:54.521Z,102912.72
2023-04-03T00:28:16.430Z,102912.81
2023-04-03T00:31:38.377Z,102915.50
2023-04-03T00:35:00.383Z,102915.63
2023-04-03T00:38:23.175Z,102912.16
2023-04-03T00:41:44.670Z,102910.56
2023-04-03T00:45:31.960Z,102913.31
2023-04-03T00:48:53.970Z,102910.84
2023-04-03T00:52:19.520Z,102912.75
2023-04-03T00:55:44.165Z,102918.13
2023-04-03T00:59:08.247Z,102915.63
2023-04-03T01:02:30.108Z,102923.59
2023-04-03T01:05:52.635Z,102929.81
2023-04-03T01:09:14.319Z,102927.28
2023-04-03T01:12:39.112Z,102929.13
2023-04-03T01:16:04.371Z,102923.06
2023-04-03T01:19:27.078Z,102918.72
2023-04-03T01:22:58.235Z,102915.31
2023-04-03T01:26:20.983Z,102918.84
2023-04-03T01:29:45.496Z,102907.53
2023-04-03T01:33:08.519Z,102906.72
2023-04-03T01:36:31.867Z,102918.09
2023-04-03T01:39:53.867Z,102921.63
2023-04-03T01:43:15.445Z,102926.91
2023-04-03T01:46:38.564Z,102934.81
2023-04-03T01:50:01.596Z,102938.31
2023-04-03T01:53:26.359Z,102943.59
2023-04-03T01:56:48.149Z,102944.47
2023-04-03T02:00:11.449Z,102947.97
2023-04-03T02:03:36.625Z,102946.25
2023-04-03T02:06:59.947Z,102950.66
2023-04-03T02:10:21.592Z,102953.25
2023-04-03T02:13:42.945Z,102951.50
2023-04-03T02:17:09.360Z,102949.78
2023-04-03T02:20:31.327Z,102944.59
2023-04-03T02:23:54.570Z,102951.59
2023-04-03T02:27:16.931Z,102951.59
2023-04-03T02:30:39.006Z,102951.59
2023-04-03T02:34:00.520Z,102956.84
2023-04-03T02:37:22.301Z,102956.84
2023-04-03T02:40:46.434Z,102958.63
2023-04-03T02:44:09.304Z,102966.47
2023-04-03T02:47:30.885Z,102968.22
2023-04-03T02:50:53.218Z,102965.63
2023-04-03T02:54:15.557Z,102968.25
2023-04-03T02:57:43.291Z,102960.41
2023-04-03T03:01:05.956Z,102965.66
2023-04-03T03:04:27.853Z,102963.91
2023-04-03T03:07:49.815Z,102977.00
2023-04-03T03:11:11.981Z,102974.38
2023-04-03T03:14:35.109Z,102979.63
2023-04-03T03:17:57.400Z,102973.50
2023-04-03T03:21:19.195Z,102981.34
2023-04-03T03:24:41.144Z,102982.19
2023-04-03T03:28:04.446Z,102981.34
2023-04-03T03:31:27.641Z,102986.59
2023-04-03T03:34:49.651Z,102988.34
2023-04-03T03:38:11.763Z,102987.50
2023-04-03T03:41:33.930Z,102991.84
2023-04-03T03:44:55.846Z,102989.25
2023-04-03T03:48:18.955Z,102991.84
2023-04-03T03:51:41.515Z,102990.13
2023-04-03T03:55:03.628Z,102999.72
2023-04-03T03:58:25.954Z,102995.34
2023-04-03T04:01:47.965Z,102994.50
2023-04-03T04:05:11.422Z,102986.66
2023-04-03T04:08:33.250Z,102989.28
2023-04-03T04:11:55.263Z,102995.38
2023-04-03T04:15:17.752Z,102999.72
2023-04-03T04:18:39.254Z,102998.00
2023-04-03T04:22:02.441Z,102998.88
2023-04-03T04:25:26.488Z,103000.63
2023-04-03T04:28:48.780Z,102995.38
2023-04-03T04:32:12.069Z,102998.00
2023-04-03T04:35:33.919Z,103005.84
2023-04-03T04:38:58.019Z,103008.47
2023-04-03T04:42:21.106Z,103006.75
2023-04-03T04:45:44.512Z,103005.88
2023-04-03T04:49:06.599Z,103013.72
2023-04-03T04:52:28.901Z,103013.72
2023-04-03T04:55:52.674Z,103021.53
2023-04-03T04:59:14.286Z,103024.16
2023-04-03T05:02:36.001Z,103023.31
2023-04-03T05:05:58.500Z,103026.78
2023-04-03T05:09:21.010Z,103039.00
2023-04-03T05:12:45.042Z,103036.38
2023-04-03T05:16:07.389Z,103040.75
2023-04-03T05:19:29.828Z,103036.38
2023-04-03T05:22:53.103Z,103041.59
2023-04-03T05:26:15.831Z,103043.34
2023-04-03T05:29:39.964Z,103043.34
2023-04-03T05:33:02.122Z,103040.72
2023-04-03T05:36:32.279Z,103042.47
2023-04-03T05:39:59.045Z,103045.97
2023-04-03T05:43:20.750Z,103041.63
2023-04-03T05:46:44.454Z,103045.94
2023-04-03T05:50:07.926Z,103047.72
2023-04-03T05:53:31.514Z,103044.22
2023-04-03T05:56:57.929Z,103044.22
2023-04-03T06:00:22.214Z,103050.31
2023-04-03T06:03:53.822Z,103057.28
2023-04-03T06:07:18.312Z,103056.41
2023-04-03T06:10:40.404Z,103051.13
2023-04-03T06:14:02.558Z,103058.09
2023-04-03T06:17:24.793Z,103055.44
2023-04-03T06:20:47.977Z,103054.47
2023-04-03T06:24:09.798Z,103061.44
2023-04-03T06:27:31.640Z,103065.72
2023-04-03T06:30:53.317Z,103069.97
2023-04-03T06:34:16.401Z,103065.53
2023-04-03T06:37:39.874Z,103068.03
2023-04-03T06:41:01.443Z,103072.28
2023-04-03T06:44:23.051Z,103087.06
2023-04-03T06:47:46.194Z,103081.66
2023-04-03T06:56:22.189Z,103097.16
2023-04-03T06:59:44.074Z,103090.94
2023-04-03T07:03:05.606Z,103087.41
2023-04-03T07:06:29.132Z,103102.25
2023-04-03T07:09:50.790Z,103100.41
2023-04-03T07:13:13.830Z,103100.31
2023-04-03T07:16:35.908Z,103103.78
2023-04-03T07:19:57.738Z,103100.13
2023-04-03T07:23:20.635Z,103115.81
2023-04-03T07:26:42.127Z,103107.06
2023-04-03T07:30:05.945Z,103111.34
2023-04-03T07:33:27.898Z,103121.78
2023-04-03T07:36:49.603Z,103113.81
2023-04-03T07:40:11.741Z,103129.47
2023-04-03T07:43:33.760Z,103119.81
2023-04-03T07:46:57.192Z,103123.25
2023-04-03T07:50:19.494Z,103127.63
2023-04-03T07:53:41.306Z,103118.00
2023-04-03T07:57:03.079Z,103125.78
2023-04-03T08:00:25.331Z,103119.59
2023-04-03T08:03:48.486Z,103121.22
2023-04-03T08:07:10.297Z,103129.03
2023-04-03T08:10:32.341Z,103122.78
2023-04-03T08:13:54.084Z,103129.69
2023-04-03T08:17:15.925Z,103119.91
2023-04-03T08:20:40.894Z,103121.53
2023-04-03T08:24:02.650Z,103125.06
2023-04-03T08:27:24.262Z,103123.25
2023-04-03T08:30:47.134Z,103115.25
2023-04-03T08:34:09.775Z,103128.25
2023-04-03T08:37:33.128Z,103117.66
2023-04-03T08:41:04.080Z,103125.47
2023-04-03T08:44:28.216Z,103120.13
2023-04-03T08:47:56.560Z,103131.47
2023-04-03T08:51:22.409Z,103130.50
2023-04-03T08:54:51.734Z,103114.69
2023-04-03T08:58:17.504Z,103107.56
2023-04-03T09:01:41.134Z,103114.44
2023-04-03T09:05:05.139Z,103108.16
2023-04-03T09:09:31.824Z,103108.94
2023-04-03T09:13:02.474Z,103117.59
2023-04-03T09:16:34.140Z,103114.97
2023-04-03T09:20:00.924Z,103107.06
2023-04-03T09:23:28.419Z,103114.06
2023-04-03T09:26:55.766Z,103113.88
2023-04-03T09:30:20.329Z,103102.31
2023-04-03T09:33:42.535Z,103101.34
2023-04-03T09:37:07.149Z,103100.28
2023-04-03T09:40:36.884Z,103115.06
2023-04-03T09:43:58.659Z,103105.28
2023-04-03T09:47:26.763Z,103107.00
2023-04-03T09:51:02.725Z,103093.81
2023-04-03T09:54:34.095Z,103100.75
2023-04-03T09:57:56.847Z,103091.03
2023-04-03T10:01:33.136Z,103098.88
2023-04-03T10:05:08.938Z,103104.09
2023-04-03T10:08:35.625Z,103091.78
2023-04-03T10:12:06.518Z,103104.94
2023-04-03T10:15:32.212Z,103093.44
2023-04-03T10:19:04.834Z,103094.38
2023-04-03T10:22:40.631Z,103090.06
2023-04-03T10:26:19.113Z,103090.06
2023-04-03T10:29:44.804Z,103091.91
2023-04-03T10:33:26.451Z,103100.75
2023-04-03T10:36:58.357Z,103086.66
2023-04-03T10:40:33.901Z,103095.28
2023-04-03T10:44:07.013Z,103089.00
2023-04-03T10:47:38.864Z,103081.16
2023-04-03T10:51:09.153Z,103080.22
2023-04-03T10:54:37.430Z,103087.97
2023-04-03T10:58:03.154Z,103073.16
2023-04-03T11:01:29.702Z,103068.41
2023-04-03T11:04:56.893Z,103074.25
2023-04-03T11:08:29.093Z,103070.84
2023-04-03T11:11:55.208Z,103059.38
2023-04-03T11:15:20.854Z,103055.69
2023-04-03T11:18:48.544Z,103053.03
2023-04-03T11:22:18.179Z,103046.88
2023-04-03T11:25:44.274Z,103042.50
2023-04-03T11:29:15.870Z,103033.50
2023-04-03T11:33:07.319Z,103045.88
2023-04-03T11:36:34.618Z,103035.25
2023-04-03T11:40:03.590Z,103032.28
2023-04-03T11:43:28.287Z,103033.78
2023-04-03T11:47:11.407Z,103032.16
2023-04-03T11:50:41.079Z,103027.75
2023-04-03T11:54:45.442Z,103025.94
2023-04-03T11:58:15.851Z,103028.47
2023-04-03T12:01:48.276Z,103023.03
2023-04-03T12:05:29.343Z,103025.44
2023-04-03T12:08:54.895Z,103019.88
2023-04-03T12:12:41.405Z,103024.38
2023-04-03T12:16:04.602Z,103019.81
2023-04-03T12:19:42.577Z,103025.38
2023-04-03T12:23:28.353Z,103031.81
2023-04-03T12:26:53.705Z,103032.78
2023-04-03T12:30:23.330Z,103026.59
2023-04-03T12:34:03.714Z,103033.69
2023-04-03T12:37:42.125Z,103032.94
2023-04-03T12:41:19.594Z,103039.03
2023-04-03T12:44:52.950Z,103021.47
2023-04-03T12:48:18.492Z,103010.03
2023-04-03T12:51:43.369Z,103032.97
2023-04-03T12:55:11.167Z,103016.31
2023-04-03T12:58:34.919Z,103019.91
2023-04-03T13:01:57.818Z,103014.41
2023-04-03T13:05:22.155Z,103024.78
2023-04-03T13:08:52.078Z,103013.22
2023-04-03T13:12:16.253Z,103013.09
2023-04-03T13:15:46.156Z,103013.16
2023-04-03T13:19:07.735Z,103004.47
2023-04-03T13:22:34.994Z,102989.53
2023-04-03T13:25:59.201Z,102984.09
2023-04-03T13:29:30.921Z,102984.88
2023-04-03T13:32:55.806Z,102986.66
2023-04-03T13:36:21.457Z,102981.19
2023-04-03T13:39:43.341Z,102985.56
2023-04-03T13:43:08.474Z,102988.28
2023-04-03T13:46:30.382Z,102983.97
2023-04-03T13:50:06.783Z,102980.38
2023-04-03T13:53:29.987Z,102981.16
2023-04-03T13:56:56.177Z,102986.31
2023-04-03T14:00:23.944Z,102990.78
2023-04-03T14:03:49.769Z,102983.00
2023-04-03T14:07:13.705Z,102983.25
2023-04-03T14:10:35.725Z,102981.63
2023-04-03T14:13:59.926Z,102978.13
2023-04-03T14:17:24.541Z,102982.50
2023-04-03T14:20:47.385Z,102979.00
2023-04-03T14:24:10.187Z,102978.88
2023-04-03T14:27:36.146Z,102980.53
2023-04-03T14:30:58.050Z,102975.09
2023-04-03T14:34:20.190Z,102963.59
2023-04-03T14:37:42.445Z,102978.72
2023-04-03T14:41:15.636Z,102971.78
2023-04-03T14:44:38.767Z,102955.66
2023-04-03T14:48:01.248Z,102943.94
2023-04-03T14:51:23.330Z,102956.13
2023-04-03T14:54:44.810Z,102946.94
2023-04-03T14:58:07.644Z,102942.28
2023-04-03T15:01:30.539Z,102958.13
2023-04-03T15:04:53.503Z,102944.97
2023-04-03T15:08:23.966Z,102953.75
2023-04-03T15:11:45.814Z,102958.53
2023-04-03T15:15:10.261Z,102952.56
2023-04-03T15:18:37.919Z,102959.59
2023-04-03T15:21:59.847Z,102957.78
2023-04-03T15:25:21.338Z,102954.22
2023-04-03T15:28:45.416Z,102948.91
2023-04-03T15:32:10.087Z,102949.84
2023-04-03T15:35:31.656Z,102955.94
2023-04-03T15:38:53.443Z,102942.91
2023-04-03T15:42:15.032Z,102944.78
2023-04-03T15:45:38.988Z,102947.47
2023-04-03T15:49:03.598Z,102940.47
2023-04-03T15:52:28.155Z,102939.72
2023-04-03T15:55:49.782Z,102940.50
2023-04-03T15:59:11.683Z,102946.53
2023-04-03T16:02:33.179Z,102946.75
2023-04-03T16:05:57.123Z,102949.47
2023-04-03T16:09:19.251Z,102950.56
2023-04-03T16:12:41.506Z,102951.41
2023-04-03T16:16:03.237Z,102955.94
2023-04-03T16:19:26.408Z,102958.53
2023-04-03T16:22:49.847Z,102966.34
2023-04-03T16:26:11.560Z,102962.94
2023-04-03T16:29:33.274Z,102954.22
2023-04-03T16:32:54.650Z,102957.66
2023-04-03T16:36:16.693Z,102963.69
2023-04-03T16:39:40.407Z,102968.19
2023-04-03T16:43:02.120Z,102963.75
2023-04-03T16:46:23.728Z,102966.41
2023-04-03T16:49:45.475Z,102974.22
2023-04-03T16:53:10.256Z,102960.03
2023-04-03T16:56:34.778Z,102961.03
2023-04-03T16:59:57.398Z,102955.66
2023-04-03T17:03:19.182Z,102965.41
2023-04-03T17:06:41.843Z,102957.59
2023-04-03T17:10:03.538Z,102956.84
2023-04-03T17:13:32.173Z,102961.16
2023-04-03T17:16:54.256Z,102964.72
2023-04-03T17:20:16.216Z,102955.66
2023-04-03T17:23:40.248Z,102959.25
2023-04-03T17:27:02.201Z,102962.00
2023-04-03T17:30:25.466Z,102960.19
2023-04-03T17:33:46.992Z,102969.84
2023-04-03T17:37:09.233Z,102971.06
2023-04-03T17:40:31.001Z,102967.47
2023-04-03T17:43:56.419Z,102968.41
2023-04-03T17:47:19.751Z,102970.31
2023-04-03T17:50:41.556Z,102971.47
2023-04-03T17:54:03.568Z,102974.19
2023-04-03T17:57:25.383Z,102975.94
2023-04-03T18:00:46.786Z,102962.81
2023-04-03T18:04:09.586Z,102974.25
2023-04-03T18:07:31.181Z,102961.97
2023-04-03T18:10:53.213Z,102970.81
2023-04-03T18:14:16.429Z,102970.81
2023-04-03T18:17:37.890Z,102974.31
2023-04-03T18:21:01.109Z,102979.63
2023-04-03T18:24:23.647Z,102980.66
2023-04-03T18:27:47.535Z,102986.03
2023-04-03T18:31:10.971Z,102985.19
2023-04-03T18:34:32.749Z,102984.44
2023-04-03T18:37:55.723Z,102986.09
2023-04-03T18:41:17.663Z,102997.41
2023-04-03T18:44:42.471Z,102986.09
2023-04-03T18:48:04.359Z,102986.09
2023-04-03T18:51:27.507Z,102993.09
2023-04-03T18:54:50.650Z,102991.28
2023-04-03T18:58:12.423Z,102991.22
2023-04-03T19:01:35.688Z,102982.25
2023-04-03T19:04:57.893Z,102990.25
2023-04-03T19:08:19.944Z,102979.84
2023-04-03T19:11:43.001Z,102987.84
2023-04-03T19:15:05.599Z,102980.16
2023-04-03T19:18:28.420Z,102981.28
2023-04-03T19:21:50.127Z,102974.47
2023-04-03T19:25:12.809Z,102970.94
2023-04-03T19:28:36.565Z,102970.84
2023-04-03T19:31:58.293Z,102967.31
2023-04-03T19:35:20.494Z,102969.06
2023-04-03T19:38:42.926Z,102974.63
2023-04-03T19:42:05.658Z,102968.66
2023-04-03T19:45:30.420Z,102965.13
2023-04-03T19:48:52.443Z,102966.94
2023-04-03T19:52:14.131Z,102971.34
2023-04-03T19:55:36.620Z,102974.91
2023-04-03T19:58:59.023Z,102977.59
2023-04-03T20:02:22.432Z,102981.25
2023-04-03T20:05:44.430Z,102980.38
2023-04-03T20:09:06.462Z,102975.97
2023-04-03T20:12:29.565Z,102973.28
2023-04-03T20:15:51.711Z,102969.69
2023-04-03T20:19:15.608Z,102978.50
2023-04-03T20:22:38.478Z,102973.22
2023-04-03T20:26:10.317Z,102989.94
2023-04-03T20:29:37.361Z,102979.47
2023-04-03T20:32:59.792Z,102981.28
2023-04-03T20:36:23.777Z,102979.59
2023-04-03T20:39:47.008Z,102978.00
2023-04-03T20:43:09.120Z,102978.13
2023-04-03T20:46:49.137Z,102968.56
2023-04-03T20:50:13.750Z,102985.41
2023-04-03T20:53:37.533Z,102969.75
2023-04-03T20:56:59.630Z,102974.28
2023-04-03T21:00:22.904Z,102979.66
2023-04-03T21:03:46.376Z,102971.84
2023-04-03T21:07:46.427Z,102975.44
2023-04-03T21:11:47.299Z,102976.44
2023-04-03T21:15:46.774Z,102982.72
2023-04-03T21:19:15.753Z,102980.19
2023-04-03T21:22:43.213Z,102980.34
2023-04-03T21:26:04.858Z,102981.34
2023-04-03T21:29:26.275Z,102977.97
2023-04-03T21:32:48.539Z,102977.22
2023-04-03T21:36:11.986Z,102981.78
2023-04-03T21:39:34.791Z,102974.97
2023-04-03T21:42:56.343Z,102978.56
2023-04-03T21:46:20.291Z,102972.59
2023-04-03T21:49:41.691Z,102972.69
2023-04-03T21:53:04.768Z,102969.28
2023-04-03T21:56:26.611Z,102972.81
2023-04-03T21:59:48.014Z,102977.28
2023-04-03T22:03:10.671Z,102968.59
2023-04-03T22:06:32.566Z,102973.06
2023-04-03T22:09:55.474Z,102967.91
2023-04-03T22:13:16.714Z,102968.00
2023-04-03T22:16:39.825Z,102977.72
2023-04-03T22:20:01.488Z,102975.16
2023-04-03T22:23:23.791Z,102969.94
2023-04-03T22:26:47.654Z,102970.00
2023-04-03T22:30:10.125Z,102970.03
2023-04-03T22:33:31.755Z,102970.88
2023-04-03T22:36:53.620Z,102962.97
2023-04-03T22:40:15.707Z,102965.56
2023-04-03T22:43:39.193Z,102965.59
2023-04-03T22:47:01.342Z,102972.66
2023-04-03T22:50:23.004Z,102969.19
2023-04-03T22:53:44.700Z,102969.22
2023-04-03T22:57:06.546Z,102968.38
2023-04-03T23:00:29.754Z,102969.31
2023-04-03T23:03:51.527Z,102972.00
2023-04-03T23:07:13.285Z,102970.28
2023-04-03T23:10:34.714Z,102975.56
2023-04-03T23:13:56.515Z,102966.91
2023-04-03T23:17:19.780Z,102962.56
2023-04-03T23:20:42.133Z,102967.88
2023-04-03T23:24:03.978Z,102970.53
2023-04-03T23:27:25.924Z,102969.69
2023-04-03T23:30:48.191Z,102974.97
2023-04-03T23:34:11.491Z,102979.38
2023-04-03T23:37:33.155Z,102968.03
2023-04-03T23:40:54.844Z,102975.91
2023-04-03T23:44:17.118Z,102978.56
2023-04-03T23:47:38.923Z,102979.44
2023-04-03T23:51:01.568Z,102969.84
2023-04-03T23:54:23.196Z,102976.00
2023-04-03T23:57:45.162Z,102973.38
